DHL1123 LFPG-EGKK
Flight info
| Callsign | DHL1123 |
|---|---|
| Flight time | 1h 0m |
| Altitude | 24000 |
| Route | OPALE DCT KESAX DCT KUNAV |
| Aircraft | A20N/M-SDE2E3FGHIRWXY/LB1 |
Departure
| Time | 2026-05-08 12:08 |
|---|---|
| Airport | Charles de Gaulle International Airport (LFPG) |
Arrival
| Time | 2026-05-08 13:08 |
|---|---|
| Airport | London Gatwick Airport (EGKK) |
| Time | Latitude | Longitude | Altitude | Speed | Heading |
|---|---|---|---|---|---|
| 2026-05-08 11:25 | 49.00032 | 2.56695 | 353 ft | 0 kts | 158° |
| 2026-05-08 11:56 | 49.00051 | 2.56683 | 358 ft | 4 kts | 154° |
| 2026-05-08 11:57 | 49.00075 | 2.56663 | 362 ft | 4 kts | 153° |
| 2026-05-08 11:57 | 49.00100 | 2.56651 | 358 ft | 4 kts | 189° |
| 2026-05-08 11:57 | 49.00123 | 2.56661 | 356 ft | 4 kts | 228° |
| 2026-05-08 11:57 | 49.00127 | 2.56693 | 360 ft | 4 kts | 290° |
| 2026-05-08 11:58 | 49.00121 | 2.56727 | 355 ft | 1 kts | 265° |
| 2026-05-08 11:58 | 49.00121 | 2.56728 | 354 ft | 0 kts | 265° |
| 2026-05-08 12:01 | 49.00121 | 2.56727 | 355 ft | 1 kts | 265° |
| 2026-05-08 12:01 | 49.00115 | 2.56632 | 363 ft | 1 kts | 261° |
| 2026-05-08 12:01 | 49.00110 | 2.56615 | 353 ft | 4 kts | 244° |
| 2026-05-08 12:01 | 49.00074 | 2.56572 | 357 ft | 9 kts | 191° |
| 2026-05-08 12:02 | 48.99994 | 2.56585 | 359 ft | 13 kts | 175° |
| 2026-05-08 12:02 | 48.99896 | 2.56588 | 354 ft | 13 kts | 179° |
| 2026-05-08 12:02 | 48.99826 | 2.56495 | 357 ft | 16 kts | 256° |
| 2026-05-08 12:02 | 48.99815 | 2.56305 | 354 ft | 19 kts | 265° |
| 2026-05-08 12:03 | 48.99804 | 2.56084 | 355 ft | 23 kts | 266° |
| 2026-05-08 12:03 | 48.99817 | 2.55834 | 359 ft | 25 kts | 284° |
| 2026-05-08 12:03 | 48.99879 | 2.55610 | 357 ft | 14 kts | 307° |
| 2026-05-08 12:03 | 48.99897 | 2.55505 | 356 ft | 0 kts | 269° |
| 2026-05-08 12:04 | 48.99896 | 2.55486 | 354 ft | 0 kts | 265° |
| 2026-05-08 12:04 | 48.99895 | 2.55461 | 354 ft | 5 kts | 265° |
| 2026-05-08 12:04 | 48.99890 | 2.55362 | 354 ft | 14 kts | 265° |
| 2026-05-08 12:04 | 48.99855 | 2.55240 | 359 ft | 9 kts | 202° |
| 2026-05-08 12:05 | 48.99826 | 2.55241 | 357 ft | 4 kts | 169° |
| 2026-05-08 12:05 | 48.99769 | 2.55267 | 356 ft | 12 kts | 161° |
| 2026-05-08 12:05 | 48.99744 | 2.55282 | 356 ft | 4 kts | 144° |
| 2026-05-08 12:05 | 48.99709 | 2.55359 | 361 ft | 13 kts | 121° |
| 2026-05-08 12:06 | 48.99634 | 2.55496 | 358 ft | 21 kts | 139° |
| 2026-05-08 12:06 | 48.99586 | 2.55577 | 357 ft | 3 kts | 112° |
| 2026-05-08 12:06 | 48.99585 | 2.55604 | 360 ft | 0 kts | 80° |
| 2026-05-08 12:07 | 48.99599 | 2.55741 | 357 ft | 39 kts | 86° |
| 2026-05-08 12:07 | 48.99635 | 2.56459 | 355 ft | 95 kts | 85° |
| 2026-05-08 12:07 | 48.99697 | 2.57674 | 353 ft | 136 kts | 86° |
| 2026-05-08 12:08 | 48.99790 | 2.59314 | 479 ft | 163 kts | 86° |
| 2026-05-08 12:08 | 48.99904 | 2.61045 | 1063 ft | 161 kts | 70° |
| 2026-05-08 12:08 | 49.00562 | 2.62570 | 1449 ft | 187 kts | 51° |
| 2026-05-08 12:08 | 49.01514 | 2.64086 | 1720 ft | 211 kts | 45° |
| 2026-05-08 12:09 | 49.02478 | 2.65780 | 2375 ft | 219 kts | 61° |
| 2026-05-08 12:09 | 49.02996 | 2.67988 | 3204 ft | 223 kts | 79° |
| 2026-05-08 12:09 | 49.03198 | 2.70340 | 4076 ft | 225 kts | 85° |
| 2026-05-08 12:09 | 49.03296 | 2.72751 | 4922 ft | 230 kts | 87° |
| 2026-05-08 12:10 | 49.03379 | 2.75213 | 5675 ft | 235 kts | 86° |
| 2026-05-08 12:10 | 49.03479 | 2.77755 | 6006 ft | 251 kts | 86° |
| 2026-05-08 12:10 | 49.03611 | 2.80601 | 6086 ft | 287 kts | 85° |
| 2026-05-08 12:10 | 49.03772 | 2.83811 | 6082 ft | 321 kts | 85° |
| 2026-05-08 12:11 | 49.03952 | 2.87380 | 6077 ft | 352 kts | 86° |
| 2026-05-08 12:11 | 49.03802 | 2.91176 | 6065 ft | 364 kts | 103° |
| 2026-05-08 12:11 | 49.02881 | 2.94758 | 6081 ft | 365 kts | 120° |
| 2026-05-08 12:11 | 49.01278 | 2.97743 | 6073 ft | 366 kts | 138° |
| 2026-05-08 12:12 | 48.99141 | 2.99841 | 6077 ft | 367 kts | 156° |
| 2026-05-08 12:12 | 48.96695 | 3.00831 | 6077 ft | 368 kts | 174° |
| 2026-05-08 12:12 | 48.94153 | 3.00975 | 6076 ft | 368 kts | 178° |
| 2026-05-08 12:12 | 48.91557 | 3.01074 | 6076 ft | 368 kts | 178° |
| 2026-05-08 12:13 | 48.88993 | 3.01177 | 6077 ft | 368 kts | 178° |
| 2026-05-08 12:13 | 48.86442 | 3.01066 | 6076 ft | 368 kts | 189° |
| 2026-05-08 12:13 | 48.84016 | 2.99852 | 6055 ft | 368 kts | 208° |
| 2026-05-08 12:13 | 48.81998 | 2.97557 | 6072 ft | 368 kts | 225° |
| 2026-05-08 12:14 | 48.80211 | 2.94761 | 6065 ft | 369 kts | 226° |
| 2026-05-08 12:14 | 48.78439 | 2.91967 | 6069 ft | 369 kts | 226° |
| 2026-05-08 12:14 | 48.76651 | 2.89154 | 6063 ft | 369 kts | 226° |
| 2026-05-08 12:14 | 48.74880 | 2.86379 | 6058 ft | 368 kts | 226° |
| 2026-05-08 12:15 | 48.73090 | 2.83584 | 6063 ft | 368 kts | 226° |
| 2026-05-08 12:15 | 48.71308 | 2.80809 | 6063 ft | 369 kts | 226° |
| 2026-05-08 12:15 | 48.69510 | 2.78012 | 6041 ft | 369 kts | 226° |
| 2026-05-08 12:15 | 48.67723 | 2.75239 | 6060 ft | 368 kts | 226° |
| 2026-05-08 12:16 | 48.65938 | 2.72471 | 6061 ft | 368 kts | 226° |
| 2026-05-08 12:16 | 48.64144 | 2.69691 | 6055 ft | 368 kts | 226° |
| 2026-05-08 12:16 | 48.62352 | 2.66917 | 6052 ft | 368 kts | 226° |
| 2026-05-08 12:16 | 48.60562 | 2.64151 | 6057 ft | 368 kts | 226° |
| 2026-05-08 12:17 | 48.58768 | 2.61380 | 6056 ft | 368 kts | 226° |
| 2026-05-08 12:17 | 48.56977 | 2.58617 | 6055 ft | 368 kts | 226° |
| 2026-05-08 12:17 | 48.55181 | 2.55846 | 6197 ft | 371 kts | 226° |
| 2026-05-08 12:17 | 48.53370 | 2.53057 | 6997 ft | 371 kts | 226° |
| 2026-05-08 12:18 | 48.51554 | 2.50266 | 7801 ft | 373 kts | 226° |
| 2026-05-08 12:18 | 48.49738 | 2.47476 | 8557 ft | 376 kts | 226° |
| 2026-05-08 12:18 | 48.47890 | 2.44641 | 9308 ft | 380 kts | 226° |
| 2026-05-08 12:18 | 48.46031 | 2.41787 | 9849 ft | 382 kts | 226° |
| 2026-05-08 12:19 | 48.44163 | 2.38927 | 10022 ft | 383 kts | 226° |
| 2026-05-08 12:19 | 48.42295 | 2.36071 | 10044 ft | 383 kts | 226° |
| 2026-05-08 12:19 | 48.40268 | 2.33471 | 10046 ft | 385 kts | 214° |
| 2026-05-08 12:19 | 48.37889 | 2.31636 | 10047 ft | 385 kts | 201° |
| 2026-05-08 12:20 | 48.35280 | 2.30693 | 10051 ft | 387 kts | 189° |
| 2026-05-08 12:20 | 48.32668 | 2.29750 | 10046 ft | 386 kts | 203° |
| 2026-05-08 12:20 | 48.30375 | 2.27724 | 10037 ft | 384 kts | 220° |
| 2026-05-08 12:20 | 48.28583 | 2.24738 | 10037 ft | 384 kts | 238° |
| 2026-05-08 12:21 | 48.27479 | 2.21114 | 10044 ft | 383 kts | 255° |
| 2026-05-08 12:21 | 48.27147 | 2.17218 | 10042 ft | 383 kts | 271° |
| 2026-05-08 12:21 | 48.27607 | 2.13303 | 10033 ft | 383 kts | 289° |
| 2026-05-08 12:21 | 48.28838 | 2.09744 | 10037 ft | 385 kts | 306° |
| 2026-05-08 12:22 | 48.30720 | 2.06897 | 10045 ft | 387 kts | 323° |
| 2026-05-08 12:22 | 48.33099 | 2.05010 | 10038 ft | 389 kts | 340° |
| 2026-05-08 12:22 | 48.35752 | 2.04266 | 10041 ft | 391 kts | 357° |
| 2026-05-08 12:22 | 48.38456 | 2.04737 | 10044 ft | 393 kts | 14° |
| 2026-05-08 12:23 | 48.40976 | 2.06355 | 10041 ft | 395 kts | 28° |
| 2026-05-08 12:23 | 48.43319 | 2.08508 | 10048 ft | 395 kts | 32° |
| 2026-05-08 12:23 | 48.45616 | 2.10781 | 10045 ft | 396 kts | 33° |
| 2026-05-08 12:23 | 48.47964 | 2.12940 | 10052 ft | 395 kts | 25° |
| 2026-05-08 12:24 | 48.50552 | 2.14271 | 10057 ft | 393 kts | 10° |
| 2026-05-08 12:24 | 48.53274 | 2.14629 | 10054 ft | 392 kts | 358° |
| 2026-05-08 12:24 | 48.55992 | 2.14322 | 10058 ft | 391 kts | 351° |
| 2026-05-08 12:24 | 48.58679 | 2.13667 | 10054 ft | 391 kts | 348° |
| 2026-05-08 12:25 | 48.61350 | 2.12870 | 10050 ft | 391 kts | 347° |
| 2026-05-08 12:25 | 48.64010 | 2.12033 | 10055 ft | 391 kts | 347° |
| 2026-05-08 12:25 | 48.66671 | 2.11197 | 10048 ft | 390 kts | 347° |
| 2026-05-08 12:25 | 48.69343 | 2.10369 | 10052 ft | 391 kts | 347° |
| 2026-05-08 12:26 | 48.71997 | 2.09556 | 10058 ft | 390 kts | 347° |
| 2026-05-08 12:26 | 48.74673 | 2.08741 | 10051 ft | 391 kts | 347° |
| 2026-05-08 12:26 | 48.77341 | 2.07930 | 10053 ft | 391 kts | 348° |
| 2026-05-08 12:26 | 48.79975 | 2.07131 | 10052 ft | 391 kts | 348° |
| 2026-05-08 12:27 | 48.82646 | 2.06318 | 10051 ft | 391 kts | 348° |
| 2026-05-08 12:27 | 48.85349 | 2.05494 | 10051 ft | 391 kts | 348° |
| 2026-05-08 12:27 | 48.87993 | 2.04685 | 10057 ft | 391 kts | 348° |
| 2026-05-08 12:27 | 48.90658 | 2.03869 | 10054 ft | 391 kts | 348° |
| 2026-05-08 12:28 | 48.93321 | 2.03054 | 10053 ft | 390 kts | 348° |
| 2026-05-08 12:28 | 48.95990 | 2.02236 | 10059 ft | 391 kts | 348° |
| 2026-05-08 12:28 | 48.98652 | 2.01420 | 10053 ft | 390 kts | 348° |
| 2026-05-08 12:28 | 49.01316 | 2.00603 | 10055 ft | 390 kts | 348° |
| 2026-05-08 12:29 | 49.03973 | 1.99785 | 10060 ft | 390 kts | 348° |
| 2026-05-08 12:29 | 49.06635 | 1.98966 | 10061 ft | 390 kts | 348° |
| 2026-05-08 12:29 | 49.09283 | 1.98151 | 10058 ft | 383 kts | 348° |
| 2026-05-08 12:29 | 49.11824 | 1.97367 | 10050 ft | 363 kts | 348° |
| 2026-05-08 12:30 | 49.14238 | 1.96622 | 10050 ft | 344 kts | 349° |
| 2026-05-08 12:30 | 49.16515 | 1.95919 | 10057 ft | 326 kts | 349° |
| 2026-05-08 12:30 | 49.18687 | 1.95247 | 10059 ft | 309 kts | 349° |
| 2026-05-08 12:30 | 49.20733 | 1.94613 | 10056 ft | 292 kts | 349° |
| 2026-05-08 12:31 | 49.22687 | 1.94008 | 10059 ft | 285 kts | 349° |
| 2026-05-08 12:31 | 49.24720 | 1.93380 | 10065 ft | 314 kts | 349° |
| 2026-05-08 12:31 | 49.26951 | 1.92690 | 10060 ft | 333 kts | 349° |
| 2026-05-08 12:31 | 49.29223 | 1.91985 | 10076 ft | 331 kts | 349° |
| 2026-05-08 12:32 | 49.31441 | 1.91294 | 10069 ft | 319 kts | 349° |
| 2026-05-08 12:32 | 49.33567 | 1.90630 | 10078 ft | 304 kts | 349° |
| 2026-05-08 12:32 | 49.35585 | 1.90000 | 10075 ft | 288 kts | 349° |
| 2026-05-08 12:32 | 49.37524 | 1.89398 | 10083 ft | 288 kts | 349° |
| 2026-05-08 12:33 | 49.39576 | 1.88765 | 10088 ft | 320 kts | 349° |
| 2026-05-08 12:33 | 49.41845 | 1.88059 | 10075 ft | 331 kts | 349° |
| 2026-05-08 12:33 | 49.44055 | 1.87365 | 10078 ft | 323 kts | 349° |
| 2026-05-08 12:33 | 49.46201 | 1.86690 | 10079 ft | 307 kts | 349° |
| 2026-05-08 12:34 | 49.48267 | 1.86042 | 10075 ft | 292 kts | 349° |
| 2026-05-08 12:34 | 49.50192 | 1.85439 | 10077 ft | 283 kts | 349° |
| 2026-05-08 12:34 | 49.52147 | 1.84830 | 10080 ft | 298 kts | 349° |
| 2026-05-08 12:34 | 49.54221 | 1.84185 | 10080 ft | 325 kts | 349° |
| 2026-05-08 12:35 | 49.56464 | 1.83481 | 10080 ft | 329 kts | 349° |
| 2026-05-08 12:35 | 49.58697 | 1.82776 | 10072 ft | 322 kts | 349° |
| 2026-05-08 12:35 | 49.60842 | 1.82098 | 10078 ft | 307 kts | 349° |
| 2026-05-08 12:35 | 49.62878 | 1.81459 | 10076 ft | 291 kts | 349° |
| 2026-05-08 12:36 | 49.64815 | 1.80846 | 10079 ft | 279 kts | 349° |
| 2026-05-08 12:36 | 49.66769 | 1.80231 | 10082 ft | 299 kts | 349° |
| 2026-05-08 12:36 | 49.68912 | 1.79559 | 10079 ft | 327 kts | 349° |
| 2026-05-08 12:36 | 49.71136 | 1.78858 | 10072 ft | 321 kts | 349° |
| 2026-05-08 12:37 | 49.73294 | 1.78172 | 10071 ft | 308 kts | 349° |
| 2026-05-08 12:37 | 49.75343 | 1.77523 | 10074 ft | 293 kts | 349° |
| 2026-05-08 12:37 | 49.77288 | 1.76906 | 10075 ft | 280 kts | 349° |
| 2026-05-08 12:37 | 49.79229 | 1.76290 | 10077 ft | 292 kts | 349° |
| 2026-05-08 12:38 | 49.81317 | 1.75632 | 10082 ft | 322 kts | 349° |
| 2026-05-08 12:38 | 49.83556 | 1.74922 | 10074 ft | 329 kts | 349° |
| 2026-05-08 12:38 | 49.85759 | 1.74219 | 10074 ft | 319 kts | 349° |
| 2026-05-08 12:38 | 49.87899 | 1.73536 | 10073 ft | 305 kts | 349° |
| 2026-05-08 12:39 | 49.89926 | 1.72890 | 10072 ft | 291 kts | 349° |
| 2026-05-08 12:39 | 49.91876 | 1.72271 | 10069 ft | 286 kts | 349° |
| 2026-05-08 12:39 | 49.93814 | 1.71654 | 10078 ft | 290 kts | 349° |
| 2026-05-08 12:39 | 49.95898 | 1.70994 | 10081 ft | 321 kts | 349° |
| 2026-05-08 12:40 | 49.98130 | 1.70283 | 10073 ft | 329 kts | 348° |
| 2026-05-08 12:40 | 50.00358 | 1.69568 | 10075 ft | 326 kts | 348° |
| 2026-05-08 12:40 | 50.02549 | 1.68864 | 10078 ft | 315 kts | 348° |
| 2026-05-08 12:40 | 50.04648 | 1.68191 | 10084 ft | 301 kts | 348° |
| 2026-05-08 12:41 | 50.06613 | 1.67305 | 10076 ft | 286 kts | 336° |
| 2026-05-08 12:41 | 50.08312 | 1.65750 | 10085 ft | 290 kts | 322° |
| 2026-05-08 12:41 | 50.09914 | 1.63588 | 10080 ft | 322 kts | 319° |
| 2026-05-08 12:41 | 50.11647 | 1.61224 | 10078 ft | 333 kts | 319° |
| 2026-05-08 12:42 | 50.13370 | 1.58886 | 10077 ft | 324 kts | 319° |
| 2026-05-08 12:42 | 50.15061 | 1.56588 | 10084 ft | 317 kts | 319° |
| 2026-05-08 12:42 | 50.16681 | 1.54385 | 10079 ft | 302 kts | 319° |
| 2026-05-08 12:42 | 50.18227 | 1.52281 | 10077 ft | 287 kts | 319° |
| 2026-05-08 12:43 | 50.19209 | 1.50942 | 10078 ft | 282 kts | 319° |
| 2026-05-08 12:43 | 50.20717 | 1.48891 | 10086 ft | 302 kts | 319° |
| 2026-05-08 12:43 | 50.22976 | 1.45815 | 10078 ft | 332 kts | 319° |
| 2026-05-08 12:43 | 50.24125 | 1.44246 | 10087 ft | 332 kts | 319° |
| 2026-05-08 12:44 | 50.25834 | 1.41911 | 10073 ft | 326 kts | 319° |
| 2026-05-08 12:44 | 50.27513 | 1.39613 | 10082 ft | 310 kts | 319° |
| 2026-05-08 12:44 | 50.29092 | 1.37450 | 10078 ft | 293 kts | 319° |
| 2026-05-08 12:44 | 50.30589 | 1.35398 | 10073 ft | 283 kts | 319° |
| 2026-05-08 12:45 | 50.32111 | 1.33311 | 10080 ft | 303 kts | 319° |
| 2026-05-08 12:45 | 50.33779 | 1.31023 | 10085 ft | 334 kts | 319° |
| 2026-05-08 12:45 | 50.35595 | 1.28529 | 10081 ft | 362 kts | 319° |
| 2026-05-08 12:45 | 50.37552 | 1.25838 | 10079 ft | 385 kts | 319° |
| 2026-05-08 12:46 | 50.39585 | 1.23039 | 10079 ft | 389 kts | 319° |
| 2026-05-08 12:46 | 50.41619 | 1.20236 | 10082 ft | 389 kts | 319° |
| 2026-05-08 12:46 | 50.43618 | 1.17478 | 10081 ft | 389 kts | 318° |
| 2026-05-08 12:46 | 50.45648 | 1.14673 | 10088 ft | 389 kts | 318° |
| 2026-05-08 12:47 | 50.47689 | 1.11849 | 10095 ft | 389 kts | 318° |
| 2026-05-08 12:47 | 50.49721 | 1.09034 | 10096 ft | 389 kts | 318° |
| 2026-05-08 12:47 | 50.51723 | 1.06175 | 10090 ft | 389 kts | 314° |
| 2026-05-08 12:47 | 50.53573 | 1.03062 | 10092 ft | 389 kts | 312° |
| 2026-05-08 12:48 | 50.55420 | 0.99943 | 10100 ft | 389 kts | 313° |
| 2026-05-08 12:48 | 50.57271 | 0.96831 | 10093 ft | 389 kts | 313° |
| 2026-05-08 12:48 | 50.59116 | 0.93727 | 10100 ft | 389 kts | 313° |
| 2026-05-08 12:48 | 50.60969 | 0.90600 | 10100 ft | 389 kts | 312° |
| 2026-05-08 12:49 | 50.62814 | 0.87484 | 10096 ft | 389 kts | 312° |
| 2026-05-08 12:49 | 50.64659 | 0.84360 | 10097 ft | 389 kts | 312° |
| 2026-05-08 12:49 | 50.66453 | 0.81318 | 10106 ft | 389 kts | 312° |
| 2026-05-08 12:49 | 50.68252 | 0.78073 | 10100 ft | 388 kts | 308° |
| 2026-05-08 12:50 | 50.69960 | 0.74705 | 10096 ft | 389 kts | 308° |
| 2026-05-08 12:50 | 50.71635 | 0.71428 | 10102 ft | 388 kts | 308° |
| 2026-05-08 12:50 | 50.73331 | 0.68113 | 10099 ft | 388 kts | 308° |
| 2026-05-08 12:50 | 50.75026 | 0.64795 | 10101 ft | 388 kts | 308° |
| 2026-05-08 12:51 | 50.76718 | 0.61474 | 10105 ft | 388 kts | 308° |
| 2026-05-08 12:51 | 50.80097 | 0.54831 | 10094 ft | 387 kts | 307° |
| 2026-05-08 12:51 | 50.81775 | 0.51525 | 9896 ft | 385 kts | 307° |
| 2026-05-08 12:52 | 50.83178 | 0.47990 | 9633 ft | 373 kts | 292° |
| 2026-05-08 12:52 | 50.85101 | 0.40706 | 9317 ft | 345 kts | 291° |
| 2026-05-08 12:52 | 50.86004 | 0.37264 | 9159 ft | 331 kts | 291° |
| 2026-05-08 12:53 | 50.86870 | 0.33974 | 9087 ft | 315 kts | 291° |
| 2026-05-08 12:53 | 50.87694 | 0.30852 | 9083 ft | 299 kts | 291° |
| 2026-05-08 12:53 | 50.88475 | 0.27905 | 9081 ft | 284 kts | 291° |
| 2026-05-08 12:53 | 50.89218 | 0.25130 | 9082 ft | 268 kts | 291° |
| 2026-05-08 12:54 | 50.89922 | 0.22518 | 9082 ft | 250 kts | 291° |
| 2026-05-08 12:54 | 50.90597 | 0.20028 | 9088 ft | 246 kts | 291° |
| 2026-05-08 12:54 | 50.91274 | 0.17523 | 9084 ft | 248 kts | 290° |
| 2026-05-08 12:54 | 50.91745 | 0.14927 | 9097 ft | 244 kts | 277° |
| 2026-05-08 12:55 | 50.91984 | 0.12257 | 9091 ft | 245 kts | 276° |
| 2026-05-08 12:55 | 50.92219 | 0.09582 | 9091 ft | 244 kts | 276° |
| 2026-05-08 12:55 | 50.92458 | 0.06917 | 9090 ft | 245 kts | 276° |
| 2026-05-08 12:55 | 50.92697 | 0.04239 | 9091 ft | 245 kts | 276° |
| 2026-05-08 12:56 | 50.92934 | 0.01580 | 9092 ft | 244 kts | 276° |
| 2026-05-08 12:56 | 50.93176 | -0.01096 | 9092 ft | 245 kts | 276° |
| 2026-05-08 12:56 | 50.93416 | -0.03745 | 9090 ft | 244 kts | 276° |
| 2026-05-08 12:56 | 50.93658 | -0.06427 | 9088 ft | 245 kts | 276° |
| 2026-05-08 12:57 | 50.93901 | -0.09099 | 9088 ft | 245 kts | 276° |
| 2026-05-08 12:57 | 50.94142 | -0.11772 | 9003 ft | 244 kts | 276° |
| 2026-05-08 12:57 | 50.94384 | -0.14438 | 8683 ft | 246 kts | 276° |
| 2026-05-08 12:57 | 50.94630 | -0.17153 | 8173 ft | 250 kts | 276° |
| 2026-05-08 12:58 | 50.94878 | -0.19897 | 7738 ft | 250 kts | 276° |
| 2026-05-08 12:58 | 50.95128 | -0.22627 | 7323 ft | 250 kts | 276° |
| 2026-05-08 12:58 | 50.95375 | -0.25334 | 6947 ft | 248 kts | 276° |
| 2026-05-08 12:58 | 50.95621 | -0.28032 | 6508 ft | 245 kts | 276° |
| 2026-05-08 12:59 | 50.95855 | -0.30641 | 6097 ft | 245 kts | 276° |
| 2026-05-08 12:59 | 50.96101 | -0.33351 | 5672 ft | 245 kts | 276° |
| 2026-05-08 12:59 | 50.96350 | -0.36036 | 5270 ft | 246 kts | 276° |
| 2026-05-08 12:59 | 50.96601 | -0.38720 | 4878 ft | 246 kts | 276° |
| 2026-05-08 13:00 | 50.96852 | -0.41414 | 4438 ft | 248 kts | 276° |
| 2026-05-08 13:00 | 50.97185 | -0.44080 | 4106 ft | 248 kts | 291° |
| 2026-05-08 13:00 | 50.98205 | -0.46195 | 4009 ft | 243 kts | 324° |
| 2026-05-08 13:00 | 50.99673 | -0.47585 | 4002 ft | 247 kts | 330° |
| 2026-05-08 13:01 | 51.01165 | -0.48904 | 4003 ft | 245 kts | 330° |
| 2026-05-08 13:01 | 51.02628 | -0.50191 | 4000 ft | 233 kts | 331° |
| 2026-05-08 13:01 | 51.04005 | -0.51397 | 3929 ft | 220 kts | 330° |
| 2026-05-08 13:01 | 51.05318 | -0.52542 | 3848 ft | 210 kts | 331° |
| 2026-05-08 13:02 | 51.06558 | -0.53626 | 3729 ft | 199 kts | 331° |
| 2026-05-08 13:02 | 51.07783 | -0.54712 | 3373 ft | 202 kts | 331° |
| 2026-05-08 13:02 | 51.09001 | -0.55814 | 3129 ft | 202 kts | 333° |
| 2026-05-08 13:02 | 51.10324 | -0.56293 | 3000 ft | 190 kts | 12° |
| 2026-05-08 13:03 | 51.11502 | -0.55384 | 3007 ft | 191 kts | 51° |
| 2026-05-08 13:03 | 51.12044 | -0.53593 | 2918 ft | 176 kts | 89° |
| 2026-05-08 13:03 | 51.11801 | -0.51739 | 2653 ft | 173 kts | 114° |
| 2026-05-08 13:03 | 51.11367 | -0.49942 | 2300 ft | 174 kts | 109° |
| 2026-05-08 13:04 | 51.11149 | -0.48097 | 2053 ft | 167 kts | 97° |
| 2026-05-08 13:04 | 51.11186 | -0.46174 | 2000 ft | 177 kts | 86° |
| 2026-05-08 13:04 | 51.11397 | -0.44231 | 2007 ft | 177 kts | 81° |
| 2026-05-08 13:04 | 51.11661 | -0.42320 | 2001 ft | 177 kts | 81° |
| 2026-05-08 13:05 | 51.11917 | -0.40438 | 2000 ft | 175 kts | 81° |
| 2026-05-08 13:05 | 51.12176 | -0.38500 | 1999 ft | 176 kts | 81° |
| 2026-05-08 13:05 | 51.12429 | -0.36621 | 2006 ft | 176 kts | 81° |
| 2026-05-08 13:05 | 51.12691 | -0.34686 | 1982 ft | 176 kts | 80° |
| 2026-05-08 13:06 | 51.12950 | -0.32759 | 1772 ft | 179 kts | 82° |
| 2026-05-08 13:06 | 51.13205 | -0.30863 | 1524 ft | 176 kts | 81° |
| 2026-05-08 13:06 | 51.13465 | -0.28947 | 1291 ft | 177 kts | 81° |
| 2026-05-08 13:06 | 51.13721 | -0.27070 | 1033 ft | 173 kts | 81° |
| 2026-05-08 13:07 | 51.13976 | -0.25195 | 804 ft | 172 kts | 79° |
| 2026-05-08 13:07 | 51.14236 | -0.23307 | 574 ft | 175 kts | 79° |
| 2026-05-08 13:07 | 51.14491 | -0.21431 | 336 ft | 174 kts | 79° |
| 2026-05-08 13:07 | 51.14742 | -0.19571 | 213 ft | 157 kts | 77° |
| 2026-05-08 13:08 | 51.14937 | -0.18190 | 208 ft | 99 kts | 75° |
| 2026-05-08 13:08 | 51.15012 | -0.17622 | 210 ft | 12 kts | 79° |
| 2026-05-08 13:08 | 51.15029 | -0.17493 | 206 ft | 17 kts | 78° |
| 2026-05-08 13:08 | 51.15076 | -0.17298 | 208 ft | 21 kts | 56° |
| 2026-05-08 13:09 | 51.15139 | -0.17209 | 210 ft | 0 kts | 359° |
| 2026-05-08 13:09 | 51.15146 | -0.17209 | 204 ft | 2 kts | 359° |
| 2026-05-08 13:09 | 51.15152 | -0.17209 | 204 ft | 0 kts | 359° |
| 2026-05-08 13:11 | 51.15167 | -0.17222 | 213 ft | 6 kts | 329° |
| 2026-05-08 13:12 | 51.15206 | -0.17270 | 207 ft | 7 kts | 323° |
| 2026-05-08 13:12 | 51.15208 | -0.17272 | 207 ft | 0 kts | 323° |
| 2026-05-08 13:13 | 51.15217 | -0.17283 | 216 ft | 7 kts | 323° |
| 2026-05-08 13:13 | 51.15279 | -0.17341 | 211 ft | 13 kts | 342° |
| 2026-05-08 13:13 | 51.15376 | -0.17375 | 204 ft | 15 kts | 347° |
| 2026-05-08 13:13 | 51.15474 | -0.17408 | 213 ft | 13 kts | 348° |
| 2026-05-08 13:14 | 51.15568 | -0.17440 | 204 ft | 15 kts | 349° |
| 2026-05-08 13:14 | 51.15674 | -0.17478 | 211 ft | 13 kts | 339° |
| 2026-05-08 13:14 | 51.15732 | -0.17504 | 208 ft | 6 kts | 335° |
| 2026-05-08 13:14 | 51.15746 | -0.17528 | 211 ft | 0 kts | 299° |
| 2026-05-08 13:16 | 51.15747 | -0.17530 | 211 ft | 0 kts | 298° |
| 2026-05-08 13:18 | 51.15749 | -0.17537 | 211 ft | 3 kts | 297° |
| 2026-05-08 13:18 | 51.15755 | -0.17591 | 210 ft | 8 kts | 294° |
| 2026-05-08 13:18 | 51.15797 | -0.17613 | 211 ft | 0 kts | 355° |
| 2026-05-08 13:18 | 51.15820 | -0.17620 | 209 ft | 0 kts | 347° |
| 2026-05-08 13:19 | 51.15832 | -0.17625 | 204 ft | 0 kts | 344° |
| 2026-05-08 13:19 | 51.15840 | -0.17629 | 207 ft | 0 kts | 343° |